sensor_id;sensor_type;location;lat;lon;timestamp;P1;durP1;ratioP1;P2;durP2;ratioP2
9506;SDS011;4791;47.528;9.372;2023-07-30T00:03:37;4.63;;;2.70;;
9506;SDS011;4791;47.528;9.372;2023-07-30T00:18:38;3.08;;;2.30;;
9506;SDS011;4791;47.528;9.372;2023-07-30T00:33:43;2.83;;;2.30;;
9506;SDS011;4791;47.528;9.372;2023-07-30T00:48:46;3.88;;;2.20;;
9506;SDS011;4791;47.528;9.372;2023-07-30T01:03:46;2.72;;;2.38;;
9506;SDS011;4791;47.528;9.372;2023-07-30T01:18:46;3.10;;;2.10;;
9506;SDS011;4791;47.528;9.372;2023-07-30T01:33:48;3.47;;;2.20;;
9506;SDS011;4791;47.528;9.372;2023-07-30T01:48:52;3.07;;;2.03;;
9506;SDS011;4791;47.528;9.372;2023-07-30T02:03:53;2.80;;;2.23;;
9506;SDS011;4791;47.528;9.372;2023-07-30T02:18:53;3.10;;;2.43;;
9506;SDS011;4791;47.528;9.372;2023-07-30T02:33:54;3.28;;;2.42;;
9506;SDS011;4791;47.528;9.372;2023-07-30T02:48:54;3.58;;;2.55;;
9506;SDS011;4791;47.528;9.372;2023-07-30T03:03:54;3.87;;;3.00;;
9506;SDS011;4791;47.528;9.372;2023-07-30T03:18:59;3.67;;;2.70;;
9506;SDS011;4791;47.528;9.372;2023-07-30T03:34:00;3.30;;;2.40;;
9506;SDS011;4791;47.528;9.372;2023-07-30T03:49:02;3.83;;;2.80;;
9506;SDS011;4791;47.528;9.372;2023-07-30T04:04:03;3.13;;;2.60;;
9506;SDS011;4791;47.528;9.372;2023-07-30T04:19:03;3.53;;;2.70;;
9506;SDS011;4791;47.528;9.372;2023-07-30T04:34:04;3.37;;;2.20;;
9506;SDS011;4791;47.528;9.372;2023-07-30T04:49:04;2.63;;;2.00;;
9506;SDS011;4791;47.528;9.372;2023-07-30T05:04:04;2.75;;;1.90;;
9506;SDS011;4791;47.528;9.372;2023-07-30T05:19:05;3.78;;;2.63;;
9506;SDS011;4791;47.528;9.372;2023-07-30T05:34:05;3.08;;;2.13;;
9506;SDS011;4791;47.528;9.372;2023-07-30T05:49:10;3.03;;;1.93;;
9506;SDS011;4791;47.528;9.372;2023-07-30T06:04:11;3.57;;;2.50;;
9506;SDS011;4791;47.528;9.372;2023-07-30T06:19:11;3.07;;;2.07;;
9506;SDS011;4791;47.528;9.372;2023-07-30T06:34:14;5.00;;;2.10;;
9506;SDS011;4791;47.528;9.372;2023-07-30T06:49:18;2.80;;;2.17;;
9506;SDS011;4791;47.528;9.372;2023-07-30T07:04:19;2.72;;;1.80;;
9506;SDS011;4791;47.528;9.372;2023-07-30T07:19:19;2.97;;;1.73;;
9506;SDS011;4791;47.528;9.372;2023-07-30T07:34:20;3.40;;;1.88;;
9506;SDS011;4791;47.528;9.372;2023-07-30T07:49:20;2.40;;;1.50;;
9506;SDS011;4791;47.528;9.372;2023-07-30T08:04:20;2.58;;;1.67;;
9506;SDS011;4791;47.528;9.372;2023-07-30T08:19:21;1.75;;;1.17;;
9506;SDS011;4791;47.528;9.372;2023-07-30T08:34:22;2.28;;;1.38;;
9506;SDS011;4791;47.528;9.372;2023-07-30T08:49:23;2.23;;;1.40;;
9506;SDS011;4791;47.528;9.372;2023-07-30T09:04:23;1.90;;;1.20;;
9506;SDS011;4791;47.528;9.372;2023-07-30T09:19:23;3.10;;;1.67;;
9506;SDS011;4791;47.528;9.372;2023-07-30T09:34:24;3.20;;;1.90;;
9506;SDS011;4791;47.528;9.372;2023-07-30T09:49:25;2.08;;;1.30;;
9506;SDS011;4791;47.528;9.372;2023-07-30T10:04:25;2.00;;;1.30;;
9506;SDS011;4791;47.528;9.372;2023-07-30T10:19:29;2.60;;;1.10;;
9506;SDS011;4791;47.528;9.372;2023-07-30T10:34:45;1.87;;;1.20;;
9506;SDS011;4791;47.528;9.372;2023-07-30T10:49:47;2.30;;;1.30;;
9506;SDS011;4791;47.528;9.372;2023-07-30T11:04:48;3.60;;;1.33;;
9506;SDS011;4791;47.528;9.372;2023-07-30T11:19:48;2.53;;;1.33;;
9506;SDS011;4791;47.528;9.372;2023-07-30T11:34:49;2.70;;;1.10;;
9506;SDS011;4791;47.528;9.372;2023-07-30T11:49:56;2.63;;;1.50;;
9506;SDS011;4791;47.528;9.372;2023-07-30T12:04:57;2.00;;;1.37;;
9506;SDS011;4791;47.528;9.372;2023-07-30T12:20:00;4.13;;;1.10;;
9506;SDS011;4791;47.528;9.372;2023-07-30T12:35:00;3.40;;;1.47;;
9506;SDS011;4791;47.528;9.372;2023-07-30T12:50:01;3.53;;;1.33;;
9506;SDS011;4791;47.528;9.372;2023-07-30T13:05:04;2.60;;;1.50;;
9506;SDS011;4791;47.528;9.372;2023-07-30T13:20:05;2.47;;;1.58;;
9506;SDS011;4791;47.528;9.372;2023-07-30T13:35:06;2.60;;;1.90;;
9506;SDS011;4791;47.528;9.372;2023-07-30T13:50:08;2.37;;;1.43;;
9506;SDS011;4791;47.528;9.372;2023-07-30T14:05:10;4.13;;;1.48;;
9506;SDS011;4791;47.528;9.372;2023-07-30T14:20:12;2.50;;;1.63;;
9506;SDS011;4791;47.528;9.372;2023-07-30T14:35:15;5.47;;;1.70;;
9506;SDS011;4791;47.528;9.372;2023-07-30T14:50:15;2.30;;;1.30;;
9506;SDS011;4791;47.528;9.372;2023-07-30T15:05:16;2.72;;;1.38;;
9506;SDS011;4791;47.528;9.372;2023-07-30T15:20:16;3.10;;;1.60;;
9506;SDS011;4791;47.528;9.372;2023-07-30T15:35:17;2.70;;;1.23;;
9506;SDS011;4791;47.528;9.372;2023-07-30T15:50:17;2.50;;;1.50;;
9506;SDS011;4791;47.528;9.372;2023-07-30T16:05:20;3.13;;;1.40;;
9506;SDS011;4791;47.528;9.372;2023-07-30T16:20:20;2.33;;;1.40;;
9506;SDS011;4791;47.528;9.372;2023-07-30T16:35:21;3.30;;;1.30;;
9506;SDS011;4791;47.528;9.372;2023-07-30T16:50:24;4.90;;;1.40;;
9506;SDS011;4791;47.528;9.372;2023-07-30T17:05:25;3.00;;;1.37;;
9506;SDS011;4791;47.528;9.372;2023-07-30T17:20:28;2.83;;;1.53;;
9506;SDS011;4791;47.528;9.372;2023-07-30T17:35:28;3.35;;;1.70;;
9506;SDS011;4791;47.528;9.372;2023-07-30T17:50:30;6.45;;;1.33;;
9506;SDS011;4791;47.528;9.372;2023-07-30T18:05:31;6.87;;;1.53;;
9506;SDS011;4791;47.528;9.372;2023-07-30T18:20:31;3.58;;;1.48;;
9506;SDS011;4791;47.528;9.372;2023-07-30T18:35:33;4.33;;;1.50;;
9506;SDS011;4791;47.528;9.372;2023-07-30T18:50:36;4.13;;;1.60;;
9506;SDS011;4791;47.528;9.372;2023-07-30T19:05:37;2.50;;;1.50;;
9506;SDS011;4791;47.528;9.372;2023-07-30T19:20:38;3.65;;;1.60;;
9506;SDS011;4791;47.528;9.372;2023-07-30T19:35:39;4.10;;;1.67;;
9506;SDS011;4791;47.528;9.372;2023-07-30T19:50:39;3.87;;;1.67;;
9506;SDS011;4791;47.528;9.372;2023-07-30T20:05:40;3.73;;;1.60;;
9506;SDS011;4791;47.528;9.372;2023-07-30T20:20:40;4.07;;;1.93;;
9506;SDS011;4791;47.528;9.372;2023-07-30T20:35:41;3.90;;;1.85;;
9506;SDS011;4791;47.528;9.372;2023-07-30T20:50:41;5.82;;;1.70;;
9506;SDS011;4791;47.528;9.372;2023-07-30T21:05:42;3.70;;;1.83;;
9506;SDS011;4791;47.528;9.372;2023-07-30T21:20:42;3.00;;;1.67;;
9506;SDS011;4791;47.528;9.372;2023-07-30T21:35:43;2.78;;;1.67;;
9506;SDS011;4791;47.528;9.372;2023-07-30T21:50:45;2.77;;;1.60;;
9506;SDS011;4791;47.528;9.372;2023-07-30T22:05:49;3.57;;;1.80;;
9506;SDS011;4791;47.528;9.372;2023-07-30T22:20:50;2.55;;;1.77;;
9506;SDS011;4791;47.528;9.372;2023-07-30T22:35:54;3.63;;;1.65;;
9506;SDS011;4791;47.528;9.372;2023-07-30T22:50:54;3.67;;;2.07;;
9506;SDS011;4791;47.528;9.372;2023-07-30T23:05:55;3.67;;;1.77;;
9506;SDS011;4791;47.528;9.372;2023-07-30T23:20:55;2.87;;;1.50;;
9506;SDS011;4791;47.528;9.372;2023-07-30T23:35:55;4.50;;;1.63;;
9506;SDS011;4791;47.528;9.372;2023-07-30T23:50:56;4.50;;;2.05;;
